sensor_id;sensor_type;location;lat;lon;timestamp;P1;durP1;ratioP1;P2;durP2;ratioP2
58768;SDS011;44536;47.474;19.056;2023-04-25T00:01:30;5.32;;;1.80;;
58768;SDS011;44536;47.474;19.056;2023-04-25T00:04:34;4.47;;;2.03;;
58768;SDS011;44536;47.474;19.056;2023-04-25T00:07:37;6.67;;;1.87;;
58768;SDS011;44536;47.474;19.056;2023-04-25T00:10:39;3.20;;;1.33;;
58768;SDS011;44536;47.474;19.056;2023-04-25T00:13:41;5.30;;;1.85;;
58768;SDS011;44536;47.474;19.056;2023-04-25T00:16:44;5.65;;;2.22;;
58768;SDS011;44536;47.474;19.056;2023-04-25T00:19:47;5.72;;;2.08;;
58768;SDS011;44536;47.474;19.056;2023-04-25T00:22:49;4.20;;;1.70;;
58768;SDS011;44536;47.474;19.056;2023-04-25T00:25:52;4.07;;;1.80;;
58768;SDS011;44536;47.474;19.056;2023-04-25T00:28:54;4.35;;;1.90;;
58768;SDS011;44536;47.474;19.056;2023-04-25T00:31:57;5.78;;;2.37;;
58768;SDS011;44536;47.474;19.056;2023-04-25T00:35:00;5.57;;;2.60;;
58768;SDS011;44536;47.474;19.056;2023-04-25T00:38:02;5.72;;;2.35;;
58768;SDS011;44536;47.474;19.056;2023-04-25T00:41:05;6.75;;;2.45;;
58768;SDS011;44536;47.474;19.056;2023-04-25T00:44:09;5.53;;;2.53;;
58768;SDS011;44536;47.474;19.056;2023-04-25T00:47:13;6.85;;;2.83;;
58768;SDS011;44536;47.474;19.056;2023-04-25T00:50:16;5.45;;;2.62;;
58768;SDS011;44536;47.474;19.056;2023-04-25T00:53:19;5.82;;;2.75;;
58768;SDS011;44536;47.474;19.056;2023-04-25T00:56:22;5.18;;;2.60;;
58768;SDS011;44536;47.474;19.056;2023-04-25T00:59:25;5.53;;;2.83;;
58768;SDS011;44536;47.474;19.056;2023-04-25T01:02:27;6.57;;;2.87;;
58768;SDS011;44536;47.474;19.056;2023-04-25T01:05:31;5.75;;;2.45;;
58768;SDS011;44536;47.474;19.056;2023-04-25T01:08:33;6.30;;;3.05;;
58768;SDS011;44536;47.474;19.056;2023-04-25T01:11:36;5.53;;;2.97;;
58768;SDS011;44536;47.474;19.056;2023-04-25T01:14:38;5.62;;;2.80;;
58768;SDS011;44536;47.474;19.056;2023-04-25T01:17:41;7.95;;;2.80;;
58768;SDS011;44536;47.474;19.056;2023-04-25T01:20:46;4.80;;;2.45;;
58768;SDS011;44536;47.474;19.056;2023-04-25T01:23:53;5.18;;;2.50;;
58768;SDS011;44536;47.474;19.056;2023-04-25T01:26:56;6.00;;;2.72;;
58768;SDS011;44536;47.474;19.056;2023-04-25T01:30:00;7.07;;;2.83;;
58768;SDS011;44536;47.474;19.056;2023-04-25T01:33:03;6.97;;;2.92;;
58768;SDS011;44536;47.474;19.056;2023-04-25T01:36:07;7.22;;;3.60;;
58768;SDS011;44536;47.474;19.056;2023-04-25T01:39:10;8.20;;;3.95;;
58768;SDS011;44536;47.474;19.056;2023-04-25T01:42:13;7.13;;;3.60;;
58768;SDS011;44536;47.474;19.056;2023-04-25T01:45:15;6.22;;;3.12;;
58768;SDS011;44536;47.474;19.056;2023-04-25T01:48:18;6.20;;;3.20;;
58768;SDS011;44536;47.474;19.056;2023-04-25T01:51:21;7.43;;;3.73;;
58768;SDS011;44536;47.474;19.056;2023-04-25T01:54:24;7.40;;;3.27;;
58768;SDS011;44536;47.474;19.056;2023-04-25T01:57:26;7.25;;;3.97;;
58768;SDS011;44536;47.474;19.056;2023-04-25T02:00:29;6.12;;;3.10;;
58768;SDS011;44536;47.474;19.056;2023-04-25T02:03:32;7.30;;;3.70;;
58768;SDS011;44536;47.474;19.056;2023-04-25T02:06:35;5.85;;;3.08;;
58768;SDS011;44536;47.474;19.056;2023-04-25T02:09:37;9.15;;;4.62;;
58768;SDS011;44536;47.474;19.056;2023-04-25T02:12:40;7.97;;;4.07;;
58768;SDS011;44536;47.474;19.056;2023-04-25T02:15:43;10.55;;;3.78;;
58768;SDS011;44536;47.474;19.056;2023-04-25T02:18:45;6.50;;;2.95;;
58768;SDS011;44536;47.474;19.056;2023-04-25T02:21:48;6.03;;;2.60;;
58768;SDS011;44536;47.474;19.056;2023-04-25T02:24:50;6.82;;;3.60;;
58768;SDS011;44536;47.474;19.056;2023-04-25T02:27:52;6.12;;;3.40;;
58768;SDS011;44536;47.474;19.056;2023-04-25T02:33:58;7.20;;;3.28;;
58768;SDS011;44536;47.474;19.056;2023-04-25T02:37:01;5.37;;;3.00;;
58768;SDS011;44536;47.474;19.056;2023-04-25T02:40:04;6.07;;;2.95;;
58768;SDS011;44536;47.474;19.056;2023-04-25T02:46:10;7.85;;;3.60;;
58768;SDS011;44536;47.474;19.056;2023-04-25T02:49:14;5.05;;;2.90;;
58768;SDS011;44536;47.474;19.056;2023-04-25T02:52:16;6.47;;;3.10;;
58768;SDS011;44536;47.474;19.056;2023-04-25T02:55:19;8.38;;;3.92;;
58768;SDS011;44536;47.474;19.056;2023-04-25T02:58:22;7.87;;;3.78;;
58768;SDS011;44536;47.474;19.056;2023-04-25T03:01:24;11.33;;;3.47;;
58768;SDS011;44536;47.474;19.056;2023-04-25T03:04:27;6.62;;;3.25;;
58768;SDS011;44536;47.474;19.056;2023-04-25T03:07:30;6.00;;;3.07;;
58768;SDS011;44536;47.474;19.056;2023-04-25T03:10:32;6.47;;;2.87;;
58768;SDS011;44536;47.474;19.056;2023-04-25T03:13:35;6.37;;;3.28;;
58768;SDS011;44536;47.474;19.056;2023-04-25T03:16:38;8.35;;;3.62;;
58768;SDS011;44536;47.474;19.056;2023-04-25T03:19:41;7.00;;;3.85;;
58768;SDS011;44536;47.474;19.056;2023-04-25T03:22:43;6.32;;;3.17;;
58768;SDS011;44536;47.474;19.056;2023-04-25T03:25:47;9.07;;;3.83;;
58768;SDS011;44536;47.474;19.056;2023-04-25T03:28:49;7.50;;;3.60;;
58768;SDS011;44536;47.474;19.056;2023-04-25T03:31:52;6.20;;;3.42;;
58768;SDS011;44536;47.474;19.056;2023-04-25T03:34:54;6.78;;;3.20;;
58768;SDS011;44536;47.474;19.056;2023-04-25T03:37:58;6.95;;;3.70;;
58768;SDS011;44536;47.474;19.056;2023-04-25T03:41:01;7.37;;;3.50;;
58768;SDS011;44536;47.474;19.056;2023-04-25T03:44:05;7.18;;;4.03;;
58768;SDS011;44536;47.474;19.056;2023-04-25T03:47:07;7.00;;;3.53;;
58768;SDS011;44536;47.474;19.056;2023-04-25T03:50:10;6.17;;;2.90;;
58768;SDS011;44536;47.474;19.056;2023-04-25T03:53:12;7.45;;;4.10;;
58768;SDS011;44536;47.474;19.056;2023-04-25T03:56:17;6.90;;;3.12;;
58768;SDS011;44536;47.474;19.056;2023-04-25T03:59:19;6.22;;;2.92;;
58768;SDS011;44536;47.474;19.056;2023-04-25T04:02:22;6.68;;;3.67;;
58768;SDS011;44536;47.474;19.056;2023-04-25T04:05:26;7.03;;;3.55;;
58768;SDS011;44536;47.474;19.056;2023-04-25T04:08:29;6.25;;;3.25;;
58768;SDS011;44536;47.474;19.056;2023-04-25T04:11:35;6.25;;;3.33;;
58768;SDS011;44536;47.474;19.056;2023-04-25T04:14:38;6.12;;;3.40;;
58768;SDS011;44536;47.474;19.056;2023-04-25T04:17:42;5.80;;;3.30;;
58768;SDS011;44536;47.474;19.056;2023-04-25T04:20:45;7.12;;;3.50;;
58768;SDS011;44536;47.474;19.056;2023-04-25T04:23:47;6.28;;;3.58;;
58768;SDS011;44536;47.474;19.056;2023-04-25T04:26:51;7.62;;;3.60;;
58768;SDS011;44536;47.474;19.056;2023-04-25T04:29:54;7.43;;;3.50;;
58768;SDS011;44536;47.474;19.056;2023-04-25T04:36:02;6.85;;;3.35;;
58768;SDS011;44536;47.474;19.056;2023-04-25T04:39:06;6.87;;;3.90;;
58768;SDS011;44536;47.474;19.056;2023-04-25T04:42:09;7.55;;;3.15;;
58768;SDS011;44536;47.474;19.056;2023-04-25T04:45:14;7.37;;;3.78;;
58768;SDS011;44536;47.474;19.056;2023-04-25T04:48:18;6.97;;;3.05;;
58768;SDS011;44536;47.474;19.056;2023-04-25T04:51:21;6.68;;;3.40;;
58768;SDS011;44536;47.474;19.056;2023-04-25T04:54:24;5.95;;;3.05;;
58768;SDS011;44536;47.474;19.056;2023-04-25T04:57:27;7.47;;;3.62;;
58768;SDS011;44536;47.474;19.056;2023-04-25T05:00:30;6.00;;;2.97;;
58768;SDS011;44536;47.474;19.056;2023-04-25T05:03:35;6.35;;;3.25;;
58768;SDS011;44536;47.474;19.056;2023-04-25T05:06:39;7.80;;;3.50;;
58768;SDS011;44536;47.474;19.056;2023-04-25T05:09:42;8.85;;;3.65;;
58768;SDS011;44536;47.474;19.056;2023-04-25T05:12:45;6.83;;;3.77;;
58768;SDS011;44536;47.474;19.056;2023-04-25T05:15:47;6.78;;;3.53;;
58768;SDS011;44536;47.474;19.056;2023-04-25T05:18:50;6.05;;;3.28;;
58768;SDS011;44536;47.474;19.056;2023-04-25T05:21:54;7.85;;;3.03;;
58768;SDS011;44536;47.474;19.056;2023-04-25T05:24:56;6.60;;;3.80;;
58768;SDS011;44536;47.474;19.056;2023-04-25T05:27:59;8.13;;;3.70;;
58768;SDS011;44536;47.474;19.056;2023-04-25T05:31:02;7.15;;;3.53;;
58768;SDS011;44536;47.474;19.056;2023-04-25T05:34:05;7.28;;;3.97;;
58768;SDS011;44536;47.474;19.056;2023-04-25T05:37:08;6.87;;;3.25;;
58768;SDS011;44536;47.474;19.056;2023-04-25T05:40:11;7.55;;;3.42;;
58768;SDS011;44536;47.474;19.056;2023-04-25T05:43:15;6.03;;;3.10;;
58768;SDS011;44536;47.474;19.056;2023-04-25T05:46:17;8.02;;;4.22;;
58768;SDS011;44536;47.474;19.056;2023-04-25T05:49:20;7.73;;;4.43;;
58768;SDS011;44536;47.474;19.056;2023-04-25T05:52:23;8.32;;;4.37;;
58768;SDS011;44536;47.474;19.056;2023-04-25T05:55:27;6.80;;;3.97;;
58768;SDS011;44536;47.474;19.056;2023-04-25T05:58:30;6.60;;;4.07;;
58768;SDS011;44536;47.474;19.056;2023-04-25T06:01:33;8.23;;;3.65;;
58768;SDS011;44536;47.474;19.056;2023-04-25T06:04:36;7.50;;;3.90;;
58768;SDS011;44536;47.474;19.056;2023-04-25T06:07:39;8.48;;;4.53;;
58768;SDS011;44536;47.474;19.056;2023-04-25T06:10:42;8.93;;;4.47;;
58768;SDS011;44536;47.474;19.056;2023-04-25T06:13:45;10.27;;;4.82;;
58768;SDS011;44536;47.474;19.056;2023-04-25T06:16:50;10.00;;;4.60;;
58768;SDS011;44536;47.474;19.056;2023-04-25T06:19:52;9.18;;;5.30;;
58768;SDS011;44536;47.474;19.056;2023-04-25T06:22:55;8.10;;;4.40;;
58768;SDS011;44536;47.474;19.056;2023-04-25T06:25:58;7.25;;;4.15;;
58768;SDS011;44536;47.474;19.056;2023-04-25T06:29:02;9.43;;;5.05;;
58768;SDS011;44536;47.474;19.056;2023-04-25T06:32:04;7.87;;;5.13;;
58768;SDS011;44536;47.474;19.056;2023-04-25T06:35:08;7.50;;;4.60;;
58768;SDS011;44536;47.474;19.056;2023-04-25T06:38:12;8.70;;;5.40;;
58768;SDS011;44536;47.474;19.056;2023-04-25T06:41:15;11.00;;;6.15;;
58768;SDS011;44536;47.474;19.056;2023-04-25T06:44:17;10.48;;;5.68;;
58768;SDS011;44536;47.474;19.056;2023-04-25T06:47:23;9.88;;;5.45;;
58768;SDS011;44536;47.474;19.056;2023-04-25T06:50:25;8.77;;;5.05;;
58768;SDS011;44536;47.474;19.056;2023-04-25T06:53:28;8.77;;;5.97;;
58768;SDS011;44536;47.474;19.056;2023-04-25T06:56:31;7.40;;;4.50;;
58768;SDS011;44536;47.474;19.056;2023-04-25T06:59:35;9.27;;;5.50;;
58768;SDS011;44536;47.474;19.056;2023-04-25T07:02:37;8.88;;;5.45;;
58768;SDS011;44536;47.474;19.056;2023-04-25T07:05:41;10.15;;;5.43;;
58768;SDS011;44536;47.474;19.056;2023-04-25T07:08:43;9.23;;;5.78;;
58768;SDS011;44536;47.474;19.056;2023-04-25T07:11:46;7.97;;;4.70;;
58768;SDS011;44536;47.474;19.056;2023-04-25T07:14:48;9.65;;;5.72;;
58768;SDS011;44536;47.474;19.056;2023-04-25T07:17:51;8.77;;;4.93;;
58768;SDS011;44536;47.474;19.056;2023-04-25T07:20:54;8.70;;;5.27;;
58768;SDS011;44536;47.474;19.056;2023-04-25T07:23:57;9.48;;;5.45;;
58768;SDS011;44536;47.474;19.056;2023-04-25T07:27:00;7.68;;;5.00;;
58768;SDS011;44536;47.474;19.056;2023-04-25T07:30:04;10.23;;;5.03;;
58768;SDS011;44536;47.474;19.056;2023-04-25T07:33:07;9.55;;;5.53;;
58768;SDS011;44536;47.474;19.056;2023-04-25T07:36:09;9.05;;;4.82;;
58768;SDS011;44536;47.474;19.056;2023-04-25T07:39:12;8.90;;;5.28;;
58768;SDS011;44536;47.474;19.056;2023-04-25T07:42:15;9.00;;;5.37;;
58768;SDS011;44536;47.474;19.056;2023-04-25T07:45:17;7.50;;;4.87;;
58768;SDS011;44536;47.474;19.056;2023-04-25T07:48:20;7.73;;;5.30;;
58768;SDS011;44536;47.474;19.056;2023-04-25T07:51:23;10.00;;;4.57;;
58768;SDS011;44536;47.474;19.056;2023-04-25T07:54:27;10.85;;;4.62;;
58768;SDS011;44536;47.474;19.056;2023-04-25T07:57:31;7.45;;;3.80;;
58768;SDS011;44536;47.474;19.056;2023-04-25T08:00:35;7.18;;;4.30;;
58768;SDS011;44536;47.474;19.056;2023-04-25T08:03:43;8.32;;;3.70;;
58768;SDS011;44536;47.474;19.056;2023-04-25T08:06:47;11.15;;;4.62;;
58768;SDS011;44536;47.474;19.056;2023-04-25T08:09:51;6.90;;;4.53;;
58768;SDS011;44536;47.474;19.056;2023-04-25T08:12:53;7.43;;;4.13;;
58768;SDS011;44536;47.474;19.056;2023-04-25T08:15:57;7.28;;;3.85;;
58768;SDS011;44536;47.474;19.056;2023-04-25T08:19:00;6.53;;;3.53;;
58768;SDS011;44536;47.474;19.056;2023-04-25T08:22:06;7.55;;;3.30;;
58768;SDS011;44536;47.474;19.056;2023-04-25T08:25:09;9.02;;;4.30;;
58768;SDS011;44536;47.474;19.056;2023-04-25T08:28:12;6.47;;;3.70;;
58768;SDS011;44536;47.474;19.056;2023-04-25T08:31:15;8.07;;;4.10;;
58768;SDS011;44536;47.474;19.056;2023-04-25T08:34:18;6.32;;;3.60;;
58768;SDS011;44536;47.474;19.056;2023-04-25T08:37:22;8.00;;;3.55;;
58768;SDS011;44536;47.474;19.056;2023-04-25T08:40:26;8.00;;;3.70;;
58768;SDS011;44536;47.474;19.056;2023-04-25T08:43:32;8.18;;;4.37;;
58768;SDS011;44536;47.474;19.056;2023-04-25T08:46:37;7.65;;;3.78;;
58768;SDS011;44536;47.474;19.056;2023-04-25T08:49:45;8.02;;;4.78;;
58768;SDS011;44536;47.474;19.056;2023-04-25T08:52:49;7.57;;;4.18;;
58768;SDS011;44536;47.474;19.056;2023-04-25T08:55:54;7.22;;;3.22;;
58768;SDS011;44536;47.474;19.056;2023-04-25T08:58:59;6.18;;;3.28;;
58768;SDS011;44536;47.474;19.056;2023-04-25T09:05:05;7.07;;;3.92;;
58768;SDS011;44536;47.474;19.056;2023-04-25T09:08:08;6.85;;;3.70;;
58768;SDS011;44536;47.474;19.056;2023-04-25T09:14:19;6.47;;;3.55;;
58768;SDS011;44536;47.474;19.056;2023-04-25T09:17:25;9.23;;;4.05;;
58768;SDS011;44536;47.474;19.056;2023-04-25T09:20:28;7.93;;;3.92;;
58768;SDS011;44536;47.474;19.056;2023-04-25T09:23:44;7.45;;;3.87;;
58768;SDS011;44536;47.474;19.056;2023-04-25T09:26:48;7.65;;;4.53;;
58768;SDS011;44536;47.474;19.056;2023-04-25T09:29:56;9.60;;;3.95;;
58768;SDS011;44536;47.474;19.056;2023-04-25T09:33:05;6.18;;;3.67;;
58768;SDS011;44536;47.474;19.056;2023-04-25T09:36:10;7.55;;;4.25;;
58768;SDS011;44536;47.474;19.056;2023-04-25T09:39:15;6.97;;;3.55;;
58768;SDS011;44536;47.474;19.056;2023-04-25T09:42:21;6.70;;;3.60;;
58768;SDS011;44536;47.474;19.056;2023-04-25T09:45:29;5.47;;;3.30;;
58768;SDS011;44536;47.474;19.056;2023-04-25T09:48:33;5.95;;;3.08;;
58768;SDS011;44536;47.474;19.056;2023-04-25T09:51:36;5.20;;;3.00;;
58768;SDS011;44536;47.474;19.056;2023-04-25T09:54:40;6.07;;;3.53;;
58768;SDS011;44536;47.474;19.056;2023-04-25T09:57:42;5.82;;;2.85;;
58768;SDS011;44536;47.474;19.056;2023-04-25T10:00:51;5.62;;;3.05;;
58768;SDS011;44536;47.474;19.056;2023-04-25T10:03:55;5.43;;;2.45;;
58768;SDS011;44536;47.474;19.056;2023-04-25T10:07:02;6.28;;;3.83;;
58768;SDS011;44536;47.474;19.056;2023-04-25T10:10:07;7.10;;;3.00;;
58768;SDS011;44536;47.474;19.056;2023-04-25T10:13:10;5.07;;;2.60;;
58768;SDS011;44536;47.474;19.056;2023-04-25T10:16:13;4.68;;;2.05;;
58768;SDS011;44536;47.474;19.056;2023-04-25T10:19:16;3.35;;;1.70;;
58768;SDS011;44536;47.474;19.056;2023-04-25T10:22:23;4.05;;;2.00;;
58768;SDS011;44536;47.474;19.056;2023-04-25T10:25:32;6.15;;;2.08;;
58768;SDS011;44536;47.474;19.056;2023-04-25T10:31:57;4.60;;;2.00;;
58768;SDS011;44536;47.474;19.056;2023-04-25T10:35:13;4.23;;;1.90;;
58768;SDS011;44536;47.474;19.056;2023-04-25T10:41:55;4.07;;;1.83;;
58768;SDS011;44536;47.474;19.056;2023-04-25T10:45:03;2.65;;;1.30;;
58768;SDS011;44536;47.474;19.056;2023-04-25T10:48:24;4.37;;;1.70;;
58768;SDS011;44536;47.474;19.056;2023-04-25T10:51:28;2.87;;;1.70;;
58768;SDS011;44536;47.474;19.056;2023-04-25T10:54:55;3.28;;;1.45;;
58768;SDS011;44536;47.474;19.056;2023-04-25T10:57:59;2.30;;;0.93;;
58768;SDS011;44536;47.474;19.056;2023-04-25T11:01:03;3.45;;;1.87;;
58768;SDS011;44536;47.474;19.056;2023-04-25T11:04:06;3.03;;;1.15;;
58768;SDS011;44536;47.474;19.056;2023-04-25T11:07:54;0.95;;;0.62;;
58768;SDS011;44536;47.474;19.056;2023-04-25T11:11:02;2.85;;;1.12;;
58768;SDS011;44536;47.474;19.056;2023-04-25T11:14:04;1.90;;;0.80;;
58768;SDS011;44536;47.474;19.056;2023-04-25T11:17:07;2.05;;;0.88;;
58768;SDS011;44536;47.474;19.056;2023-04-25T11:20:10;2.37;;;1.00;;
58768;SDS011;44536;47.474;19.056;2023-04-25T11:32:29;2.70;;;0.70;;
58768;SDS011;44536;47.474;19.056;2023-04-25T11:35:47;1.33;;;0.80;;
58768;SDS011;44536;47.474;19.056;2023-04-25T11:38:50;2.20;;;1.00;;
58768;SDS011;44536;47.474;19.056;2023-04-25T11:41:55;2.45;;;0.82;;
58768;SDS011;44536;47.474;19.056;2023-04-25T11:44:58;1.20;;;0.65;;
58768;SDS011;44536;47.474;19.056;2023-04-25T11:48:01;2.78;;;0.90;;
58768;SDS011;44536;47.474;19.056;2023-04-25T11:51:05;1.50;;;0.65;;
58768;SDS011;44536;47.474;19.056;2023-04-25T11:54:10;2.90;;;0.80;;
58768;SDS011;44536;47.474;19.056;2023-04-25T11:57:19;1.65;;;0.70;;
58768;SDS011;44536;47.474;19.056;2023-04-25T12:00:23;4.18;;;0.82;;
58768;SDS011;44536;47.474;19.056;2023-04-25T12:03:45;1.52;;;0.85;;
58768;SDS011;44536;47.474;19.056;2023-04-25T12:06:49;2.30;;;0.77;;
58768;SDS011;44536;47.474;19.056;2023-04-25T12:09:53;3.40;;;1.20;;
58768;SDS011;44536;47.474;19.056;2023-04-25T12:12:55;2.60;;;1.20;;
58768;SDS011;44536;47.474;19.056;2023-04-25T12:15:58;2.12;;;1.12;;
58768;SDS011;44536;47.474;19.056;2023-04-25T12:19:02;2.03;;;0.95;;
58768;SDS011;44536;47.474;19.056;2023-04-25T12:25:59;2.80;;;1.20;;
58768;SDS011;44536;47.474;19.056;2023-04-25T12:29:14;5.45;;;1.80;;
58768;SDS011;44536;47.474;19.056;2023-04-25T12:32:18;3.12;;;1.00;;
58768;SDS011;44536;47.474;19.056;2023-04-25T12:35:21;3.33;;;1.20;;
58768;SDS011;44536;47.474;19.056;2023-04-25T12:38:24;1.75;;;0.77;;
58768;SDS011;44536;47.474;19.056;2023-04-25T12:41:28;2.47;;;1.00;;
58768;SDS011;44536;47.474;19.056;2023-04-25T12:44:30;4.90;;;2.03;;
58768;SDS011;44536;47.474;19.056;2023-04-25T12:47:32;3.35;;;1.42;;
58768;SDS011;44536;47.474;19.056;2023-04-25T12:51:05;3.83;;;1.50;;
58768;SDS011;44536;47.474;19.056;2023-04-25T12:54:08;3.33;;;1.30;;
58768;SDS011;44536;47.474;19.056;2023-04-25T12:57:10;2.70;;;1.25;;
58768;SDS011;44536;47.474;19.056;2023-04-25T13:00:13;3.47;;;1.67;;
58768;SDS011;44536;47.474;19.056;2023-04-25T13:03:16;2.87;;;1.02;;
58768;SDS011;44536;47.474;19.056;2023-04-25T13:09:22;3.28;;;1.52;;
58768;SDS011;44536;47.474;19.056;2023-04-25T13:12:25;2.70;;;1.40;;
58768;SDS011;44536;47.474;19.056;2023-04-25T13:15:27;3.15;;;1.67;;
58768;SDS011;44536;47.474;19.056;2023-04-25T13:18:30;3.77;;;1.50;;
58768;SDS011;44536;47.474;19.056;2023-04-25T13:21:33;3.00;;;1.40;;
58768;SDS011;44536;47.474;19.056;2023-04-25T13:24:35;3.67;;;1.67;;
58768;SDS011;44536;47.474;19.056;2023-04-25T13:27:37;4.00;;;1.55;;
58768;SDS011;44536;47.474;19.056;2023-04-25T13:30:42;3.47;;;1.33;;
58768;SDS011;44536;47.474;19.056;2023-04-25T13:33:45;5.15;;;1.70;;
58768;SDS011;44536;47.474;19.056;2023-04-25T13:36:47;3.55;;;1.52;;
58768;SDS011;44536;47.474;19.056;2023-04-25T13:39:49;4.18;;;1.50;;
58768;SDS011;44536;47.474;19.056;2023-04-25T13:45:55;4.75;;;1.50;;
58768;SDS011;44536;47.474;19.056;2023-04-25T13:48:57;4.07;;;1.52;;
58768;SDS011;44536;47.474;19.056;2023-04-25T13:52:12;3.53;;;1.65;;
58768;SDS011;44536;47.474;19.056;2023-04-25T13:55:15;4.18;;;1.80;;
58768;SDS011;44536;47.474;19.056;2023-04-25T13:58:19;4.95;;;1.83;;
58768;SDS011;44536;47.474;19.056;2023-04-25T14:01:22;3.20;;;1.75;;
58768;SDS011;44536;47.474;19.056;2023-04-25T14:04:25;8.30;;;2.55;;
58768;SDS011;44536;47.474;19.056;2023-04-25T14:07:28;4.82;;;1.48;;
58768;SDS011;44536;47.474;19.056;2023-04-25T14:10:31;4.43;;;2.10;;
58768;SDS011;44536;47.474;19.056;2023-04-25T14:13:33;2.90;;;1.20;;
58768;SDS011;44536;47.474;19.056;2023-04-25T14:16:35;3.70;;;1.50;;
58768;SDS011;44536;47.474;19.056;2023-04-25T14:19:37;3.90;;;1.60;;
58768;SDS011;44536;47.474;19.056;2023-04-25T14:22:45;3.30;;;1.83;;
58768;SDS011;44536;47.474;19.056;2023-04-25T14:25:47;4.45;;;1.80;;
58768;SDS011;44536;47.474;19.056;2023-04-25T14:28:52;6.80;;;1.70;;
58768;SDS011;44536;47.474;19.056;2023-04-25T14:31:55;4.95;;;1.70;;
58768;SDS011;44536;47.474;19.056;2023-04-25T14:35:00;5.20;;;2.00;;
58768;SDS011;44536;47.474;19.056;2023-04-25T14:38:04;4.15;;;1.83;;
58768;SDS011;44536;47.474;19.056;2023-04-25T14:41:07;4.68;;;1.80;;
58768;SDS011;44536;47.474;19.056;2023-04-25T14:44:09;4.10;;;1.60;;
58768;SDS011;44536;47.474;19.056;2023-04-25T14:47:16;6.85;;;2.28;;
58768;SDS011;44536;47.474;19.056;2023-04-25T14:50:19;4.25;;;1.83;;
58768;SDS011;44536;47.474;19.056;2023-04-25T14:53:24;3.92;;;1.80;;
58768;SDS011;44536;47.474;19.056;2023-04-25T14:56:30;3.22;;;1.40;;
58768;SDS011;44536;47.474;19.056;2023-04-25T14:59:34;4.87;;;2.08;;
58768;SDS011;44536;47.474;19.056;2023-04-25T15:02:40;4.68;;;2.05;;
58768;SDS011;44536;47.474;19.056;2023-04-25T15:05:46;3.47;;;1.55;;
58768;SDS011;44536;47.474;19.056;2023-04-25T15:08:50;4.43;;;2.17;;
58768;SDS011;44536;47.474;19.056;2023-04-25T15:11:52;3.62;;;1.75;;
58768;SDS011;44536;47.474;19.056;2023-04-25T15:14:54;5.85;;;1.62;;
58768;SDS011;44536;47.474;19.056;2023-04-25T15:17:57;5.00;;;1.77;;
58768;SDS011;44536;47.474;19.056;2023-04-25T15:21:00;3.22;;;1.40;;
58768;SDS011;44536;47.474;19.056;2023-04-25T15:24:03;4.87;;;1.90;;
58768;SDS011;44536;47.474;19.056;2023-04-25T15:27:05;3.30;;;1.42;;
58768;SDS011;44536;47.474;19.056;2023-04-25T15:30:09;4.25;;;1.83;;
58768;SDS011;44536;47.474;19.056;2023-04-25T15:33:17;3.03;;;1.58;;
58768;SDS011;44536;47.474;19.056;2023-04-25T15:36:19;6.45;;;2.10;;
58768;SDS011;44536;47.474;19.056;2023-04-25T15:39:23;3.50;;;1.85;;
58768;SDS011;44536;47.474;19.056;2023-04-25T15:42:25;3.50;;;1.85;;
58768;SDS011;44536;47.474;19.056;2023-04-25T15:45:27;4.05;;;1.75;;
58768;SDS011;44536;47.474;19.056;2023-04-25T15:48:30;3.92;;;1.83;;
58768;SDS011;44536;47.474;19.056;2023-04-25T15:51:33;4.25;;;1.87;;
58768;SDS011;44536;47.474;19.056;2023-04-25T15:54:36;4.07;;;2.17;;
58768;SDS011;44536;47.474;19.056;2023-04-25T15:57:38;6.32;;;2.87;;
58768;SDS011;44536;47.474;19.056;2023-04-25T16:00:43;5.25;;;2.20;;
58768;SDS011;44536;47.474;19.056;2023-04-25T16:03:46;6.85;;;3.05;;
58768;SDS011;44536;47.474;19.056;2023-04-25T16:06:49;7.37;;;2.67;;
58768;SDS011;44536;47.474;19.056;2023-04-25T16:09:51;6.05;;;3.55;;
58768;SDS011;44536;47.474;19.056;2023-04-25T16:12:54;5.35;;;2.90;;
58768;SDS011;44536;47.474;19.056;2023-04-25T16:15:56;6.03;;;2.87;;
58768;SDS011;44536;47.474;19.056;2023-04-25T16:18:58;7.20;;;2.75;;
58768;SDS011;44536;47.474;19.056;2023-04-25T16:22:01;6.32;;;2.97;;
58768;SDS011;44536;47.474;19.056;2023-04-25T16:25:03;5.82;;;3.20;;
58768;SDS011;44536;47.474;19.056;2023-04-25T16:28:06;6.22;;;2.72;;
58768;SDS011;44536;47.474;19.056;2023-04-25T16:31:09;4.70;;;2.30;;
58768;SDS011;44536;47.474;19.056;2023-04-25T16:34:11;5.62;;;2.90;;
58768;SDS011;44536;47.474;19.056;2023-04-25T16:37:16;5.87;;;2.62;;
58768;SDS011;44536;47.474;19.056;2023-04-25T16:40:18;6.12;;;2.83;;
58768;SDS011;44536;47.474;19.056;2023-04-25T16:43:21;5.37;;;2.78;;
58768;SDS011;44536;47.474;19.056;2023-04-25T16:46:24;5.53;;;2.55;;
58768;SDS011;44536;47.474;19.056;2023-04-25T16:49:27;5.50;;;2.67;;
58768;SDS011;44536;47.474;19.056;2023-04-25T16:52:29;4.35;;;2.35;;
58768;SDS011;44536;47.474;19.056;2023-04-25T16:55:32;6.30;;;3.57;;
58768;SDS011;44536;47.474;19.056;2023-04-25T16:58:34;5.93;;;2.95;;
58768;SDS011;44536;47.474;19.056;2023-04-25T17:01:37;6.78;;;3.25;;
58768;SDS011;44536;47.474;19.056;2023-04-25T17:07:45;6.10;;;2.55;;
58768;SDS011;44536;47.474;19.056;2023-04-25T17:10:51;5.75;;;3.10;;
58768;SDS011;44536;47.474;19.056;2023-04-25T17:13:53;5.60;;;2.85;;
58768;SDS011;44536;47.474;19.056;2023-04-25T17:17:15;5.15;;;2.70;;
58768;SDS011;44536;47.474;19.056;2023-04-25T17:20:23;5.30;;;2.90;;
58768;SDS011;44536;47.474;19.056;2023-04-25T17:23:30;7.12;;;3.53;;
58768;SDS011;44536;47.474;19.056;2023-04-25T17:26:48;7.12;;;3.12;;
58768;SDS011;44536;47.474;19.056;2023-04-25T17:29:53;8.57;;;3.45;;
58768;SDS011;44536;47.474;19.056;2023-04-25T17:32:57;5.53;;;2.85;;
58768;SDS011;44536;47.474;19.056;2023-04-25T17:36:10;5.43;;;2.87;;
58768;SDS011;44536;47.474;19.056;2023-04-25T17:39:14;8.13;;;3.37;;
58768;SDS011;44536;47.474;19.056;2023-04-25T17:42:23;5.95;;;3.40;;
58768;SDS011;44536;47.474;19.056;2023-04-25T17:48:44;5.40;;;2.45;;
58768;SDS011;44536;47.474;19.056;2023-04-25T17:51:49;5.75;;;3.08;;
58768;SDS011;44536;47.474;19.056;2023-04-25T17:55:08;6.72;;;3.28;;
58768;SDS011;44536;47.474;19.056;2023-04-25T17:58:11;6.57;;;2.95;;
58768;SDS011;44536;47.474;19.056;2023-04-25T18:01:30;7.37;;;3.92;;
58768;SDS011;44536;47.474;19.056;2023-04-25T18:04:37;7.85;;;3.85;;
58768;SDS011;44536;47.474;19.056;2023-04-25T18:07:42;6.87;;;3.67;;
58768;SDS011;44536;47.474;19.056;2023-04-25T18:10:50;5.93;;;3.45;;
58768;SDS011;44536;47.474;19.056;2023-04-25T18:13:53;5.72;;;3.50;;
58768;SDS011;44536;47.474;19.056;2023-04-25T18:16:57;7.40;;;3.92;;
58768;SDS011;44536;47.474;19.056;2023-04-25T18:20:01;6.95;;;3.53;;
58768;SDS011;44536;47.474;19.056;2023-04-25T18:23:15;7.87;;;3.58;;
58768;SDS011;44536;47.474;19.056;2023-04-25T18:26:22;7.43;;;3.92;;
58768;SDS011;44536;47.474;19.056;2023-04-25T18:29:29;6.93;;;3.70;;
58768;SDS011;44536;47.474;19.056;2023-04-25T18:32:36;9.02;;;3.67;;
58768;SDS011;44536;47.474;19.056;2023-04-25T18:35:55;8.27;;;3.65;;
58768;SDS011;44536;47.474;19.056;2023-04-25T18:39:01;8.35;;;4.40;;
58768;SDS011;44536;47.474;19.056;2023-04-25T18:42:13;8.75;;;4.32;;
58768;SDS011;44536;47.474;19.056;2023-04-25T18:45:16;8.13;;;5.30;;
58768;SDS011;44536;47.474;19.056;2023-04-25T18:48:20;7.85;;;4.12;;
58768;SDS011;44536;47.474;19.056;2023-04-25T18:51:23;6.50;;;3.80;;
58768;SDS011;44536;47.474;19.056;2023-04-25T18:54:32;6.82;;;3.05;;
58768;SDS011;44536;47.474;19.056;2023-04-25T18:57:35;6.93;;;3.85;;
58768;SDS011;44536;47.474;19.056;2023-04-25T19:00:39;8.30;;;3.40;;